Time,TemperatureF,DewpointF,PressureIn,WindDirection,WindDirectionDegrees,WindSpeedMPH,WindSpeedGustMPH,Humidity,HourlyPrecipIn,Conditions,Clouds,dailyrainin,SoftwareType,DateUTC
2013-06-15 00:00:00,46.4,45.6,30.13,East,90,0.0,0.0,97,0.05,,---,0.00,VWS V14.01,2013-06-15 08:00:00,
2013-06-15 00:05:00,46.4,45.6,30.13,East,90,0.0,0.0,97,0.05,,---,0.00,VWS V14.01,2013-06-15 08:05:00,
2013-06-15 00:10:00,46.4,45.9,30.13,East,90,0.0,0.0,98,0.06,,---,0.01,VWS V14.01,2013-06-15 08:10:00,
2013-06-15 00:15:00,46.4,45.9,30.13,East,90,0.0,0.0,98,0.06,,---,0.01,VWS V14.01,2013-06-15 08:15:00,
2013-06-15 00:20:00,46.4,45.9,30.13,East,90,0.0,0.0,98,0.05,,---,0.01,VWS V14.01,2013-06-15 08:20:00,
2013-06-15 00:25:00,46.3,45.8,30.13,East,90,0.0,0.0,98,0.06,,---,0.02,VWS V14.01,2013-06-15 08:25:00,
2013-06-15 00:30:00,46.3,45.8,30.13,East,90,0.0,0.0,98,0.05,,---,0.02,VWS V14.01,2013-06-15 08:30:00,
2013-06-15 00:35:00,46.2,45.7,30.13,East,90,0.0,0.0,98,0.04,,---,0.02,VWS V14.01,2013-06-15 08:35:00,
2013-06-15 00:40:00,46.2,45.4,30.13,East,90,0.0,0.0,97,0.04,,---,0.02,VWS V14.01,2013-06-15 08:40:00,
2013-06-15 00:45:00,46.2,45.7,30.13,East,90,0.0,0.0,98,0.04,,---,0.03,VWS V14.01,2013-06-15 08:45:00,
2013-06-15 00:50:00,46.2,45.7,30.13,East,90,0.0,0.0,98,0.04,,---,0.03,VWS V14.01,2013-06-15 08:50:00,
2013-06-15 00:55:00,46.2,45.7,30.13,East,90,0.0,0.0,98,0.04,,---,0.03,VWS V14.01,2013-06-15 08:55:00,
2013-06-15 01:00:00,46.2,45.7,30.14,East,90,0.0,0.0,98,0.03,,---,0.03,VWS V14.01,2013-06-15 09:00:00,
2013-06-15 01:05:00,46.2,45.7,30.13,East,90,0.0,0.0,98,0.04,,---,0.04,VWS V14.01,2013-06-15 09:05:00,
2013-06-15 01:10:00,46.1,45.6,30.13,East,90,0.0,0.0,98,0.04,,---,0.04,VWS V14.01,2013-06-15 09:10:00,
2013-06-15 01:15:00,46.1,45.6,30.13,East,90,0.0,0.0,98,0.03,,---,0.04,VWS V14.01,2013-06-15 09:15:00,
2013-06-15 01:20:00,46.1,45.6,30.13,East,90,0.0,0.0,98,0.04,,---,0.05,VWS V14.01,2013-06-15 09:20:00,
2013-06-15 01:25:00,46.0,45.5,30.13,East,90,0.0,0.0,98,0.04,,---,0.05,VWS V14.01,2013-06-15 09:25:00,
2013-06-15 01:30:00,46.0,45.5,30.13,East,90,0.0,0.0,98,0.03,,---,0.05,VWS V14.01,2013-06-15 09:30:00,
2013-06-15 01:35:00,46.0,45.5,30.13,East,90,0.0,0.0,98,0.04,,---,0.06,VWS V14.01,2013-06-15 09:35:00,
2013-06-15 01:40:00,46.0,45.5,30.13,East,90,0.0,0.0,98,0.04,,---,0.06,VWS V14.01,2013-06-15 09:40:00,
2013-06-15 01:45:00,45.9,45.4,30.13,East,90,0.0,0.0,98,0.04,,---,0.06,VWS V14.01,2013-06-15 09:45:00,
2013-06-15 01:50:00,45.8,45.3,30.13,East,90,0.0,0.0,98,0.03,,---,0.06,VWS V14.01,2013-06-15 09:50:00,
2013-06-15 01:55:00,45.8,45.3,30.13,East,90,0.0,0.0,98,0.03,,---,0.06,VWS V14.01,2013-06-15 09:55:00,
2013-06-15 02:00:00,45.8,45.3,30.13,East,90,0.0,0.0,98,0.03,,---,0.06,VWS V14.01,2013-06-15 10:00:00,
2013-06-15 02:05:00,45.8,45.3,30.13,East,90,0.0,0.0,98,0.03,,---,0.06,VWS V14.01,2013-06-15 10:05:00,
2013-06-15 02:10:00,45.8,45.3,30.12,East,90,0.0,0.0,98,0.03,,---,0.07,VWS V14.01,2013-06-15 10:10:00,
2013-06-15 02:15:00,45.8,45.3,30.12,East,90,0.0,0.0,98,0.03,,---,0.07,VWS V14.01,2013-06-15 10:15:00,
2013-06-15 02:20:00,45.8,45.3,30.12,East,90,0.0,0.0,98,0.03,,---,0.07,VWS V14.01,2013-06-15 10:20:00,
2013-06-15 02:25:00,45.7,45.2,30.12,East,90,0.0,0.0,98,0.02,,---,0.07,VWS V14.01,2013-06-15 10:25:00,
2013-06-15 02:30:00,45.7,45.2,30.12,East,90,0.0,0.0,98,0.02,,---,0.07,VWS V14.01,2013-06-15 10:30:00,
2013-06-15 02:35:00,45.7,45.2,30.12,East,90,0.0,0.0,98,0.02,,---,0.07,VWS V14.01,2013-06-15 10:35:00,
2013-06-15 02:40:00,45.7,45.2,30.12,East,90,0.0,0.0,98,0.02,,---,0.08,VWS V14.01,2013-06-15 10:40:00,
2013-06-15 02:45:00,45.7,45.2,30.12,East,90,0.0,0.0,98,0.02,,---,0.08,VWS V14.01,2013-06-15 10:45:00,
2013-06-15 02:50:00,45.7,45.2,30.12,East,90,0.0,0.0,98,0.02,,---,0.08,VWS V14.01,2013-06-15 10:50:00,
2013-06-15 02:55:00,45.6,45.1,30.12,East,90,0.0,0.0,98,0.02,,---,0.08,VWS V14.01,2013-06-15 10:55:00,
2013-06-15 03:00:00,45.6,45.1,30.11,East,90,0.0,1.0,98,0.03,,---,0.09,VWS V14.01,2013-06-15 11:00:00,
2013-06-15 03:05:00,45.7,45.2,30.11,East,90,0.0,0.0,98,0.03,,---,0.09,VWS V14.01,2013-06-15 11:05:00,
2013-06-15 03:10:00,45.7,45.2,30.11,East,90,0.0,0.0,98,0.03,,---,0.09,VWS V14.01,2013-06-15 11:10:00,
2013-06-15 03:15:00,45.7,45.2,30.11,East,90,0.0,0.0,98,0.02,,---,0.09,VWS V14.01,2013-06-15 11:15:00,
2013-06-15 03:20:00,45.6,45.1,30.11,East,90,0.0,0.0,98,0.02,,---,0.09,VWS V14.01,2013-06-15 11:20:00,
2013-06-15 03:25:00,45.7,45.2,30.11,East,90,0.0,3.0,98,0.03,,---,0.10,VWS V14.01,2013-06-15 11:25:00,
2013-06-15 03:30:00,45.8,45.3,30.10,East,90,0.0,3.0,98,0.03,,---,0.10,VWS V14.01,2013-06-15 11:30:00,
2013-06-15 03:35:00,45.8,45.3,30.10,East,90,0.0,0.0,98,0.03,,---,0.10,VWS V14.01,2013-06-15 11:35:00,
2013-06-15 03:40:00,45.8,45.3,30.10,East,90,0.0,0.0,98,0.03,,---,0.10,VWS V14.01,2013-06-15 11:40:00,
2013-06-15 03:45:00,45.8,45.3,30.10,East,90,0.0,0.0,98,0.02,,---,0.10,VWS V14.01,2013-06-15 11:45:00,
2013-06-15 03:50:00,45.8,45.3,30.10,East,90,0.0,0.0,98,0.02,,---,0.10,VWS V14.01,2013-06-15 11:50:00,
2013-06-15 03:55:00,45.8,45.3,30.10,East,90,0.0,0.0,98,0.02,,---,0.10,VWS V14.01,2013-06-15 11:55:00,
2013-06-15 04:00:00,45.8,45.3,30.10,East,90,0.0,3.0,98,0.03,,---,0.11,VWS V14.01,2013-06-15 12:00:00,
2013-06-15 04:05:00,45.8,45.3,30.10,East,90,0.0,3.0,98,0.02,,---,0.11,VWS V14.01,2013-06-15 12:05:00,
2013-06-15 04:10:00,45.8,45.3,30.10,NNW,338,0.0,1.0,98,0.02,,---,0.11,VWS V14.01,2013-06-15 12:10:00,
2013-06-15 04:15:00,45.8,45.3,30.10,NNW,338,0.0,0.0,98,0.02,,---,0.11,VWS V14.01,2013-06-15 12:15:00,
2013-06-15 04:20:00,45.8,45.3,30.09,NNW,338,0.0,0.0,98,0.03,,---,0.12,VWS V14.01,2013-06-15 12:20:00,
2013-06-15 04:25:00,45.8,45.3,30.09,NNW,338,0.0,0.0,98,0.03,,---,0.12,VWS V14.01,2013-06-15 12:25:00,
2013-06-15 04:30:00,45.8,45.3,30.09,NNW,338,0.0,0.0,98,0.02,,---,0.12,VWS V14.01,2013-06-15 12:30:00,
2013-06-15 04:35:00,45.8,45.3,30.09,NNW,338,2.0,4.0,98,0.02,,---,0.12,VWS V14.01,2013-06-15 12:35:00,
2013-06-15 04:40:00,45.8,45.3,30.09,NNW,338,0.0,0.0,98,0.02,,---,0.12,VWS V14.01,2013-06-15 12:40:00,
2013-06-15 04:45:00,46.0,45.5,30.09,NNW,338,0.0,2.0,98,0.02,,---,0.12,VWS V14.01,2013-06-15 12:45:00,
2013-06-15 04:50:00,46.1,45.6,30.09,NNW,338,0.0,2.0,98,0.02,,---,0.12,VWS V14.01,2013-06-15 12:50:00,
2013-06-15 04:55:00,46.1,45.6,30.09,NNW,338,0.0,0.0,98,0.02,,---,0.12,VWS V14.01,2013-06-15 12:55:00,
2013-06-15 05:00:00,46.0,45.5,30.08,NNW,338,0.0,2.0,98,0.02,,---,0.12,VWS V14.01,2013-06-15 13:00:00,
2013-06-15 05:05:00,46.3,45.8,30.08,East,90,1.0,6.0,98,0.01,,---,0.12,VWS V14.01,2013-06-15 13:05:00,
2013-06-15 05:10:00,46.9,46.4,30.08,East,90,2.0,6.0,98,0.02,,---,0.13,VWS V14.01,2013-06-15 13:10:00,
2013-06-15 05:15:00,46.9,46.4,30.08,ENE,68,1.0,6.0,98,0.02,,---,0.13,VWS V14.01,2013-06-15 13:15:00,
2013-06-15 05:20:00,47.0,46.5,30.08,SE,135,1.0,5.0,98,0.02,,---,0.13,VWS V14.01,2013-06-15 13:20:00,
2013-06-15 05:25:00,47.2,46.7,30.08,ESE,112,1.0,6.0,98,0.02,,---,0.14,VWS V14.01,2013-06-15 13:25:00,
2013-06-15 05:30:00,47.2,46.7,30.08,ESE,112,1.0,5.0,98,0.02,,---,0.14,VWS V14.01,2013-06-15 13:30:00,
2013-06-15 05:35:00,47.2,46.7,30.08,ESE,112,0.0,1.0,98,0.02,,---,0.14,VWS V14.01,2013-06-15 13:35:00,
2013-06-15 05:40:00,47.2,46.7,30.07,ESE,112,0.0,0.0,98,0.03,,---,0.15,VWS V14.01,2013-06-15 13:40:00,
2013-06-15 05:45:00,47.2,46.7,30.07,ESE,112,0.0,0.0,98,0.03,,---,0.15,VWS V14.01,2013-06-15 13:45:00,
2013-06-15 05:50:00,47.3,46.8,30.07,ESE,112,0.0,4.0,98,0.04,,---,0.16,VWS V14.01,2013-06-15 13:50:00,
2013-06-15 05:55:00,47.0,46.5,30.07,East,90,1.0,4.0,98,0.04,,---,0.16,VWS V14.01,2013-06-15 13:55:00,
2013-06-15 06:00:00,46.9,46.4,30.07,East,90,0.0,0.0,98,0.04,,---,0.16,VWS V14.01,2013-06-15 14:00:00,
2013-06-15 06:05:00,46.9,46.4,30.06,East,90,0.0,0.0,98,0.04,,---,0.16,VWS V14.01,2013-06-15 14:05:00,
2013-06-15 06:10:00,46.8,46.0,30.06,East,90,0.0,0.0,97,0.05,,---,0.17,VWS V14.01,2013-06-15 14:10:00,
2013-06-15 06:15:00,46.8,46.3,30.07,ESE,112,1.0,4.0,98,0.04,,---,0.17,VWS V14.01,2013-06-15 14:15:00,
2013-06-15 06:20:00,46.9,46.4,30.07,SSE,158,0.0,4.0,98,0.06,,---,0.19,VWS V14.01,2013-06-15 14:20:00,
2013-06-15 06:25:00,47.0,46.5,30.06,SSE,158,1.0,6.0,98,0.07,,---,0.20,VWS V14.01,2013-06-15 14:25:00,
2013-06-15 06:30:00,47.1,46.6,30.06,SE,135,1.0,5.0,98,0.06,,---,0.20,VWS V14.01,2013-06-15 14:30:00,
2013-06-15 06:35:00,47.2,46.7,30.06,SE,135,0.0,1.0,98,0.07,,---,0.21,VWS V14.01,2013-06-15 14:35:00,
2013-06-15 06:40:00,47.3,46.8,30.06,SE,135,0.0,4.0,98,0.07,,---,0.21,VWS V14.01,2013-06-15 14:40:00,
2013-06-15 06:45:00,47.4,46.9,30.06,ESE,112,1.0,4.0,98,0.07,,---,0.22,VWS V14.01,2013-06-15 14:45:00,
2013-06-15 06:50:00,47.6,47.1,30.06,ESE,112,0.0,4.0,98,0.07,,---,0.22,VWS V14.01,2013-06-15 14:50:00,
2013-06-15 06:55:00,47.6,47.1,30.06,ESE,112,0.0,2.0,98,0.07,,---,0.23,VWS V14.01,2013-06-15 14:55:00,
2013-06-15 07:00:00,47.7,47.2,30.06,SE,135,3.0,9.0,98,0.07,,---,0.23,VWS V14.01,2013-06-15 15:00:00,
2013-06-15 07:05:00,47.7,47.2,30.06,East,90,1.0,9.0,98,0.08,,---,0.24,VWS V14.01,2013-06-15 15:05:00,
2013-06-15 07:10:00,47.7,47.2,30.06,East,90,0.0,1.0,98,0.08,,---,0.24,VWS V14.01,2013-06-15 15:10:00,
2013-06-15 07:15:00,47.6,47.1,30.06,SE,135,1.0,6.0,98,0.08,,---,0.25,VWS V14.01,2013-06-15 15:15:00,
2013-06-15 07:20:00,47.6,47.1,30.06,SE,135,1.0,9.0,98,0.09,,---,0.26,VWS V14.01,2013-06-15 15:20:00,
2013-06-15 07:25:00,47.5,47.0,30.06,ESE,112,1.0,5.0,98,0.07,,---,0.26,VWS V14.01,2013-06-15 15:25:00,
2013-06-15 07:30:00,47.4,46.9,30.06,ESE,112,0.0,4.0,98,0.07,,---,0.27,VWS V14.01,2013-06-15 15:30:00,
2013-06-15 07:35:00,47.4,46.9,30.06,ESE,112,0.0,0.0,98,0.08,,---,0.28,VWS V14.01,2013-06-15 15:35:00,
2013-06-15 07:40:00,47.3,46.8,30.05,ESE,112,0.0,4.0,98,0.07,,---,0.28,VWS V14.01,2013-06-15 15:40:00,
2013-06-15 07:45:00,47.3,46.8,30.06,SE,135,3.0,8.0,98,0.07,,---,0.28,VWS V14.01,2013-06-15 15:45:00,
2013-06-15 07:50:00,47.3,46.5,30.05,SSE,158,1.0,7.0,97,0.07,,---,0.29,VWS V14.01,2013-06-15 15:50:00,
2013-06-15 07:55:00,47.2,46.4,30.05,SE,135,2.0,6.0,97,0.07,,---,0.29,VWS V14.01,2013-06-15 15:55:00,
2013-06-15 08:00:00,47.1,46.3,30.05,SE,135,0.0,0.0,97,0.07,,---,0.30,VWS V14.01,2013-06-15 16:00:00,
2013-06-15 08:05:00,47.1,46.3,30.05,East,90,1.0,4.0,97,0.07,,---,0.30,VWS V14.01,2013-06-15 16:05:00,
2013-06-15 08:10:00,47.1,46.3,30.05,ESE,112,0.0,1.0,97,0.07,,---,0.31,VWS V14.01,2013-06-15 16:10:00,
2013-06-15 08:15:00,47.1,46.3,30.05,ESE,112,1.0,5.0,97,0.08,,---,0.32,VWS V14.01,2013-06-15 16:15:00,
2013-06-15 08:20:00,47.0,46.5,30.05,SE,135,0.0,4.0,98,0.07,,---,0.32,VWS V14.01,2013-06-15 16:20:00,
2013-06-15 08:25:00,47.0,46.5,30.05,SE,135,1.0,5.0,98,0.07,,---,0.33,VWS V14.01,2013-06-15 16:25:00,
2013-06-15 08:30:00,47.1,46.6,30.05,SE,135,1.0,4.0,98,0.08,,---,0.34,VWS V14.01,2013-06-15 16:30:00,
2013-06-15 08:35:00,47.9,47.4,30.05,ESE,112,3.0,7.0,98,0.07,,---,0.34,VWS V14.01,2013-06-15 16:35:00,
2013-06-15 08:40:00,48.6,48.1,30.04,ENE,68,5.0,14.0,98,0.07,,---,0.35,VWS V14.01,2013-06-15 16:40:00,
2013-06-15 08:45:00,48.8,48.3,30.04,ENE,68,6.0,14.0,98,0.07,,---,0.35,VWS V14.01,2013-06-15 16:45:00,
2013-06-15 08:50:00,48.8,48.3,30.04,East,90,5.0,12.0,98,0.08,,---,0.36,VWS V14.01,2013-06-15 16:50:00,
2013-06-15 08:55:00,48.8,48.0,30.04,East,90,5.0,13.0,97,0.07,,---,0.36,VWS V14.01,2013-06-15 16:55:00,
2013-06-15 09:00:00,48.7,47.9,30.04,ENE,68,5.0,12.0,97,0.07,,---,0.36,VWS V14.01,2013-06-15 17:00:00,
2013-06-15 09:05:00,48.8,48.0,30.04,NE,45,5.0,13.0,97,0.07,,---,0.37,VWS V14.01,2013-06-15 17:05:00,
2013-06-15 09:10:00,48.9,48.1,30.04,East,90,4.0,12.0,97,0.07,,---,0.37,VWS V14.01,2013-06-15 17:10:00,
2013-06-15 09:15:00,49.1,48.3,30.03,East,90,5.0,15.0,97,0.07,,---,0.38,VWS V14.01,2013-06-15 17:15:00,
2013-06-15 09:20:00,49.2,48.4,30.03,ENE,68,6.0,15.0,97,0.06,,---,0.38,VWS V14.01,2013-06-15 17:20:00,
2013-06-15 09:25:00,49.3,48.5,30.03,NE,45,8.0,20.0,97,0.06,,---,0.38,VWS V14.01,2013-06-15 17:25:00,
2013-06-15 09:30:00,49.7,48.9,30.03,ENE,68,10.0,22.0,97,0.06,,---,0.39,VWS V14.01,2013-06-15 17:30:00,
2013-06-15 09:35:00,49.9,49.1,30.03,ENE,68,9.0,22.0,97,0.06,,---,0.40,VWS V14.01,2013-06-15 17:35:00,
2013-06-15 09:40:00,49.8,48.7,30.03,NE,45,11.0,19.0,96,0.06,,---,0.40,VWS V14.01,2013-06-15 17:40:00,
2013-06-15 09:45:00,49.8,48.7,30.03,ENE,68,9.0,17.0,96,0.06,,---,0.41,VWS V14.01,2013-06-15 17:45:00,
2013-06-15 09:50:00,50.1,49.0,30.02,ENE,68,9.0,18.0,96,0.07,,---,0.42,VWS V14.01,2013-06-15 17:50:00,
2013-06-15 09:55:00,50.1,49.0,30.02,NE,45,10.0,19.0,96,0.06,,---,0.42,VWS V14.01,2013-06-15 17:55:00,
2013-06-15 10:00:00,50.2,49.1,30.02,ENE,68,8.0,16.0,96,0.07,,---,0.43,VWS V14.01,2013-06-15 18:00:00,
2013-06-15 10:05:00,50.1,49.0,30.02,ENE,68,9.0,17.0,96,0.07,,---,0.43,VWS V14.01,2013-06-15 18:05:00,
2013-06-15 10:10:00,50.2,49.1,30.02,ENE,68,10.0,19.0,96,0.07,,---,0.44,VWS V14.01,2013-06-15 18:10:00,
2013-06-15 10:15:00,50.4,49.3,30.01,ENE,68,10.0,17.0,96,0.07,,---,0.44,VWS V14.01,2013-06-15 18:15:00,
2013-06-15 10:20:00,50.3,49.2,30.01,ENE,68,11.0,20.0,96,0.07,,---,0.45,VWS V14.01,2013-06-15 18:20:00,
2013-06-15 10:25:00,50.1,49.0,30.01,ESE,112,9.0,14.0,96,0.08,,---,0.46,VWS V14.01,2013-06-15 18:25:00,
2013-06-15 10:30:00,50.2,49.1,30.01,ESE,112,9.0,14.0,96,0.09,,---,0.47,VWS V14.01,2013-06-15 18:30:00,
2013-06-15 10:35:00,50.2,49.1,30.01,ESE,112,10.0,20.0,96,0.09,,---,0.48,VWS V14.01,2013-06-15 18:35:00,
2013-06-15 10:40:00,50.4,49.3,30.01,ESE,112,10.0,16.0,96,0.08,,---,0.48,VWS V14.01,2013-06-15 18:40:00,
2013-06-15 10:45:00,50.5,49.4,30.00,ESE,112,10.0,16.0,96,0.09,,---,0.49,VWS V14.01,2013-06-15 18:45:00,
2013-06-15 10:50:00,50.3,49.2,30.00,ESE,112,11.0,20.0,96,0.09,,---,0.50,VWS V14.01,2013-06-15 18:50:00,
2013-06-15 10:55:00,50.7,49.9,30.00,ESE,112,11.0,18.0,97,0.09,,---,0.51,VWS V14.01,2013-06-15 18:55:00,
2013-06-15 11:00:00,51.1,50.0,30.00,ESE,112,10.0,19.0,96,0.10,,---,0.52,VWS V14.01,2013-06-15 19:00:00,
2013-06-15 11:05:00,51.0,49.9,30.00,ESE,112,10.0,18.0,96,0.10,,---,0.53,VWS V14.01,2013-06-15 19:05:00,
2013-06-15 11:10:00,51.4,50.3,30.00,ESE,112,12.0,18.0,96,0.11,,---,0.54,VWS V14.01,2013-06-15 19:10:00,
2013-06-15 11:15:00,51.7,50.6,30.00,ESE,112,11.0,20.0,96,0.11,,---,0.55,VWS V14.01,2013-06-15 19:15:00,
2013-06-15 11:20:00,51.8,50.7,29.99,ESE,112,12.0,20.0,96,0.12,,---,0.56,VWS V14.01,2013-06-15 19:20:00,
2013-06-15 11:25:00,51.8,50.7,29.99,ESE,112,12.0,20.0,96,0.12,,---,0.57,VWS V14.01,2013-06-15 19:25:00,
2013-06-15 11:30:00,51.7,50.6,30.00,ESE,112,11.0,18.0,96,0.12,,---,0.58,VWS V14.01,2013-06-15 19:30:00,
2013-06-15 11:35:00,51.6,50.5,29.99,ESE,112,11.0,20.0,96,0.13,,---,0.60,VWS V14.01,2013-06-15 19:35:00,
2013-06-15 11:40:00,51.5,50.4,29.99,ESE,112,11.0,18.0,96,0.13,,---,0.61,VWS V14.01,2013-06-15 19:40:00,
2013-06-15 11:45:00,51.4,50.3,29.99,SE,135,11.0,18.0,96,0.14,,---,0.62,VWS V14.01,2013-06-15 19:45:00,
2013-06-15 11:50:00,51.4,50.3,29.99,SE,135,10.0,18.0,96,0.14,,---,0.63,VWS V14.01,2013-06-15 19:50:00,
2013-06-15 11:55:00,51.4,50.3,29.99,SE,135,12.0,19.0,96,0.14,,---,0.64,VWS V14.01,2013-06-15 19:55:00,
2013-06-15 12:00:00,51.3,50.2,29.99,ESE,112,11.0,18.0,96,0.14,,---,0.65,VWS V14.01,2013-06-15 20:00:00,
2013-06-15 12:05:00,51.4,50.3,29.99,ESE,112,11.0,18.0,96,0.14,,---,0.66,VWS V14.01,2013-06-15 20:05:00,
2013-06-15 12:10:00,51.5,50.4,29.99,ESE,112,12.0,20.0,96,0.14,,---,0.67,VWS V14.01,2013-06-15 20:10:00,
2013-06-15 12:15:00,51.4,50.3,29.99,SE,135,11.0,17.0,96,0.14,,---,0.68,VWS V14.01,2013-06-15 20:15:00,
2013-06-15 12:20:00,51.6,50.5,29.99,SE,135,10.0,17.0,96,0.13,,---,0.68,VWS V14.01,2013-06-15 20:20:00,
2013-06-15 12:25:00,51.7,50.6,29.99,SE,135,10.0,18.0,96,0.13,,---,0.69,VWS V14.01,2013-06-15 20:25:00,
2013-06-15 12:30:00,51.8,51.0,29.99,SE,135,11.0,19.0,97,0.13,,---,0.70,VWS V14.01,2013-06-15 20:30:00,
2013-06-15 12:35:00,52.6,51.8,29.99,ESE,112,12.0,19.0,97,0.00,,---,0.01,VWS V14.01,2013-06-15 20:35:00,
2013-06-15 12:38:00,51.8,51.0,29.99,SE,135,11.0,19.0,97,0.13,,---,0.70,VWS V14.01,2013-06-15 20:38:00,
2013-06-15 12:40:00,52.9,52.1,29.99,SE,135,10.0,21.0,97,0.00,,---,0.01,VWS V14.01,2013-06-15 20:40:00,
2013-06-15 12:45:00,52.6,51.5,29.99,SE,135,9.0,19.0,96,0.00,,---,0.02,VWS V14.01,2013-06-15 20:45:00,
2013-06-15 12:50:00,52.0,50.6,29.99,SE,135,13.0,21.0,95,0.00,,---,0.03,VWS V14.01,2013-06-15 20:50:00,
2013-06-15 13:03:00,51.9,50.8,29.99,SE,135,12.0,19.0,96,0.00,,---,0.04,VWS V14.01,2013-06-15 21:03:00,
2013-06-15 13:08:00,52.0,50.9,29.99,SE,141,11.0,21.0,96,0.09,,---,0.76,VWS V14.01,2013-06-15 21:08:00,
2013-06-15 13:09:00,52.1,51.3,29.99,ESE,115,12.0,21.0,97,0.09,,---,0.76,VWS V14.01,2013-06-15 21:09:00,
2013-06-15 13:13:00,52.2,51.1,29.99,SE,132,11.0,22.0,96,0.09,,---,0.77,VWS V14.01,2013-06-15 21:13:00,
2013-06-15 13:14:00,52.3,51.2,29.99,ESE,119,12.0,22.0,96,0.09,,---,0.77,VWS V14.01,2013-06-15 21:14:00,
2013-06-15 13:18:00,52.5,51.7,29.99,SE,133,7.0,15.0,97,0.09,,---,0.77,VWS V14.01,2013-06-15 21:18:00,
2013-06-15 13:19:00,52.5,51.7,29.99,ESE,117,11.0,15.0,97,0.09,,---,0.77,VWS V14.01,2013-06-15 21:19:00,
2013-06-15 13:23:00,52.8,52.0,29.99,SE,145,7.0,15.0,97,0.08,,---,0.77,VWS V14.01,2013-06-15 21:23:00,
2013-06-15 13:24:00,52.8,52.0,29.99,SSE,161,6.0,15.0,97,0.08,,---,0.77,VWS V14.01,2013-06-15 21:24:00,
2013-06-15 13:29:00,52.4,51.3,30.00,SE,126,11.0,20.0,96,0.08,,---,0.78,VWS V14.01,2013-06-15 21:29:00,
2013-06-15 13:34:00,52.0,50.9,30.00,SSE,158,7.0,19.0,96,0.78,,---,0.79,VWS V14.01,2013-06-15 21:34:00,
2013-06-15 13:35:00,51.9,50.8,30.00,SE,134,11.0,19.0,96,0.78,,---,0.79,VWS V14.01,2013-06-15 21:35:00,
2013-06-15 13:39:00,51.8,50.7,30.00,ESE,112,12.0,19.0,96,0.78,,---,0.79,VWS V14.01,2013-06-15 21:39:00,
2013-06-15 13:40:00,51.8,50.7,30.00,SE,132,8.0,19.0,96,0.78,,---,0.79,VWS V14.01,2013-06-15 21:40:00,
2013-06-15 13:44:00,51.6,50.5,30.00,SE,142,9.0,18.0,96,0.78,,---,0.80,VWS V14.01,2013-06-15 21:44:00,
2013-06-15 13:45:00,51.6,50.5,30.00,SE,134,9.0,18.0,96,0.78,,---,0.80,VWS V14.01,2013-06-15 21:45:00,
2013-06-15 13:49:00,51.7,50.6,30.00,SSE,150,13.0,25.0,96,0.77,,---,0.80,VWS V14.01,2013-06-15 21:49:00,
2013-06-15 13:50:00,51.7,50.6,30.00,ESE,109,8.0,25.0,96,0.78,,---,0.81,VWS V14.01,2013-06-15 21:50:00,
2013-06-15 13:55:00,51.7,50.6,30.00,SSE,167,11.0,19.0,96,0.77,,---,0.81,VWS V14.01,2013-06-15 21:55:00,
2013-06-15 13:56:00,51.7,50.6,30.00,ESE,122,14.0,19.0,96,0.77,,---,0.81,VWS V14.01,2013-06-15 21:56:00,
2013-06-15 14:00:00,51.5,50.4,30.00,SE,134,12.0,18.0,96,0.77,,---,0.81,VWS V14.01,2013-06-15 22:00:00,
2013-06-15 14:01:00,51.4,50.3,30.00,SSE,159,6.0,18.0,96,0.77,,---,0.81,VWS V14.01,2013-06-15 22:01:00,
2013-06-15 14:05:00,51.5,50.7,30.00,SE,126,13.0,19.0,97,0.06,,---,0.82,VWS V14.01,2013-06-15 22:05:00,
2013-06-15 14:06:00,51.5,50.7,30.00,SE,143,17.0,19.0,97,0.06,,---,0.82,VWS V14.01,2013-06-15 22:06:00,
2013-06-15 14:10:00,51.4,50.6,30.00,SE,127,8.0,18.0,97,0.07,,---,0.83,VWS V14.01,2013-06-15 22:10:00,
2013-06-15 14:11:00,51.4,50.6,30.00,SSE,148,6.0,18.0,97,0.07,,---,0.83,VWS V14.01,2013-06-15 22:11:00,
2013-06-15 14:12:00,51.4,50.6,30.00,SSE,163,11.0,13.0,97,0.06,,---,0.83,VWS V14.01,2013-06-15 22:12:00,
2013-06-15 14:15:00,51.3,50.5,30.00,SE,127,5.0,15.0,97,0.06,,---,0.83,VWS V14.01,2013-06-15 22:15:00,
2013-06-15 14:16:00,51.3,50.5,30.00,South,170,6.0,15.0,97,0.06,,---,0.83,VWS V14.01,2013-06-15 22:16:00,
2013-06-15 14:17:00,51.4,50.6,30.01,SE,125,11.0,16.0,97,0.06,,---,0.83,VWS V14.01,2013-06-15 22:17:00,
2013-06-15 14:21:00,51.3,50.5,30.01,ESE,119,8.0,16.0,97,0.06,,---,0.83,VWS V14.01,2013-06-15 22:21:00,
2013-06-15 14:22:00,51.3,50.5,30.01,SSE,148,8.0,9.0,97,0.07,,---,0.84,VWS V14.01,2013-06-15 22:22:00,
2013-06-15 14:23:00,51.3,50.5,30.01,SSE,164,9.0,11.0,97,0.07,,---,0.84,VWS V14.01,2013-06-15 22:23:00,
2013-06-15 14:26:00,51.4,50.6,30.01,SSE,168,9.0,16.0,97,0.07,,---,0.84,VWS V14.01,2013-06-15 22:26:00,
2013-06-15 14:27:00,51.4,50.6,30.01,SSE,155,6.0,9.0,97,0.07,,---,0.84,VWS V14.01,2013-06-15 22:27:00,
2013-06-15 14:28:00,51.3,50.5,30.01,SSE,147,7.0,15.0,97,0.07,,---,0.84,VWS V14.01,2013-06-15 22:28:00,
2013-06-15 14:31:00,51.2,50.4,30.01,SSE,148,4.0,6.0,97,0.06,,---,0.84,VWS V14.01,2013-06-15 22:31:00,
2013-06-15 14:32:00,51.2,50.4,30.01,ESE,123,7.0,7.0,97,0.06,,---,0.84,VWS V14.01,2013-06-15 22:32:00,
2013-06-15 14:33:00,51.0,50.2,30.02,SSE,153,13.0,16.0,97,0.06,,---,0.84,VWS V14.01,2013-06-15 22:33:00,
2013-06-15 14:36:00,50.7,49.6,30.02,SSE,150,7.0,9.0,96,0.05,,---,0.84,VWS V14.01,2013-06-15 22:36:00,
2013-06-15 14:37:00,50.7,49.6,30.02,SSE,148,12.0,12.0,96,0.05,,---,0.84,VWS V14.01,2013-06-15 22:37:00,
2013-06-15 14:38:00,50.6,49.8,30.02,South,171,11.0,12.0,97,0.05,,---,0.84,VWS V14.01,2013-06-15 22:38:00,
2013-06-15 14:42:00,50.4,49.3,30.02,SE,146,9.0,11.0,96,0.04,,---,0.84,VWS V14.01,2013-06-15 22:42:00,
2013-06-15 14:44:00,50.2,49.4,30.02,SSE,167,4.0,13.0,97,0.04,,---,0.84,VWS V14.01,2013-06-15 22:44:00,
2013-06-15 14:47:00,50.0,49.2,30.02,South,187,4.0,10.0,97,0.04,,---,0.84,VWS V14.01,2013-06-15 22:47:00,
2013-06-15 14:48:00,50.0,49.2,30.02,SSE,160,7.0,12.0,97,0.04,,---,0.84,VWS V14.01,2013-06-15 22:48:00,
2013-06-15 14:50:00,49.9,49.1,30.02,SSE,159,6.0,12.0,97,0.04,,---,0.84,VWS V14.01,2013-06-15 22:50:00,
2013-06-15 14:52:00,49.7,48.9,30.02,SE,143,8.0,10.0,97,0.03,,---,0.84,VWS V14.01,2013-06-15 22:52:00,
2013-06-15 14:53:00,49.6,48.8,30.02,SSE,153,8.0,11.0,97,0.03,,---,0.84,VWS V14.01,2013-06-15 22:53:00,
2013-06-15 14:55:00,49.6,48.8,30.02,South,171,9.0,11.0,97,0.03,,---,0.84,VWS V14.01,2013-06-15 22:55:00,
2013-06-15 14:57:00,49.5,48.7,30.03,SSE,158,4.0,9.0,97,0.03,,---,0.84,VWS V14.01,2013-06-15 22:57:00,
2013-06-15 14:58:00,49.5,48.7,30.03,SSE,148,5.0,9.0,97,0.03,,---,0.84,VWS V14.01,2013-06-15 22:58:00,
2013-06-15 15:00:00,49.4,48.6,30.03,SE,146,4.0,9.0,97,0.03,,---,0.84,VWS V14.01,2013-06-15 23:00:00,
2013-06-15 15:02:00,49.4,48.6,30.03,SSE,161,5.0,7.0,97,0.02,,---,0.84,VWS V14.01,2013-06-15 23:02:00,
2013-06-15 15:03:00,49.4,48.6,30.03,SSE,161,5.0,7.0,97,0.02,,---,0.84,VWS V14.01,2013-06-15 23:03:00,
2013-06-15 15:06:00,49.4,48.6,30.03,SE,126,5.0,9.0,97,0.02,,---,0.84,VWS V14.01,2013-06-15 23:06:00,
2013-06-15 15:08:00,49.4,48.6,30.03,SSE,155,6.0,9.0,97,0.02,,---,0.84,VWS V14.01,2013-06-15 23:08:00,
2013-06-15 15:09:00,49.3,48.5,30.03,SE,137,6.0,9.0,97,0.02,,---,0.84,VWS V14.01,2013-06-15 23:09:00,
2013-06-15 15:11:00,49.3,48.5,30.03,SE,146,9.0,10.0,97,0.02,,---,0.84,VWS V14.01,2013-06-15 23:11:00,
2013-06-15 15:13:00,49.1,48.3,30.03,SE,128,7.0,9.0,97,0.01,,---,0.84,VWS V14.01,2013-06-15 23:13:00,
2013-06-15 15:15:00,49.0,48.2,30.03,South,184,5.0,9.0,97,0.01,,---,0.84,VWS V14.01,2013-06-15 23:15:00,
2013-06-15 15:16:00,48.9,48.1,30.03,SE,138,7.0,9.0,97,0.01,,---,0.84,VWS V14.01,2013-06-15 23:16:00,
2013-06-15 15:18:00,48.9,48.1,30.03,SSE,150,6.0,9.0,97,0.01,,---,0.84,VWS V14.01,2013-06-15 23:18:00,
2013-06-15 15:20:00,48.8,48.0,30.03,South,172,5.0,9.0,97,0.01,,---,0.84,VWS V14.01,2013-06-15 23:20:00,
2013-06-15 15:21:00,48.8,48.0,30.03,SSE,165,6.0,6.0,97,0.00,,---,0.84,VWS V14.01,2013-06-15 23:21:00,
2013-06-15 15:23:00,48.8,48.0,30.03,South,174,5.0,9.0,97,0.00,,---,0.84,VWS V14.01,2013-06-15 23:23:00,
2013-06-15 15:24:00,48.7,47.9,30.03,South,169,9.0,9.0,97,0.00,,---,0.84,VWS V14.01,2013-06-15 23:24:00,
2013-06-15 15:25:00,48.6,47.8,30.04,SSE,152,7.0,9.0,97,0.01,,---,0.85,VWS V14.01,2013-06-15 23:25:00,
2013-06-15 15:26:00,48.5,47.7,30.03,SSE,167,5.0,6.0,97,0.01,,---,0.85,VWS V14.01,2013-06-15 23:26:00,
2013-06-15 15:28:00,48.5,47.7,30.04,South,174,6.0,8.0,97,0.01,,---,0.85,VWS V14.01,2013-06-15 23:28:00,
2013-06-15 15:29:00,48.3,47.5,30.04,SE,127,7.0,10.0,97,0.01,,---,0.85,VWS V14.01,2013-06-15 23:29:00,
2013-06-15 15:30:00,48.2,47.4,30.04,SSE,157,8.0,10.0,97,0.01,,---,0.85,VWS V14.01,2013-06-15 23:30:00,
2013-06-15 15:31:00,48.1,47.3,30.04,SSE,148,8.0,8.0,97,0.01,,---,0.85,VWS V14.01,2013-06-15 23:31:00,
2013-06-15 15:33:00,47.9,46.8,30.04,South,180,6.0,9.0,96,0.01,,---,0.85,VWS V14.01,2013-06-15 23:33:00,
2013-06-15 15:34:00,47.9,46.8,30.04,SSE,166,6.0,9.0,96,0.01,,---,0.85,VWS V14.01,2013-06-15 23:34:00,
2013-06-15 15:35:00,47.8,47.0,30.04,SSE,163,8.0,9.0,97,0.01,,---,0.85,VWS V14.01,2013-06-15 23:35:00,
2013-06-15 15:36:00,47.7,46.9,30.04,SSE,153,4.0,8.0,97,0.01,,---,0.85,VWS V14.01,2013-06-15 23:36:00,
2013-06-15 15:37:00,47.7,46.9,30.04,SSE,164,5.0,8.0,97,0.01,,---,0.85,VWS V14.01,2013-06-15 23:37:00,
2013-06-15 15:38:00,47.6,46.8,30.04,SE,144,5.0,8.0,97,0.01,,---,0.85,VWS V14.01,2013-06-15 23:38:00,
2013-06-15 15:39:00,47.6,46.8,30.04,South,174,8.0,8.0,97,0.01,,---,0.85,VWS V14.01,2013-06-15 23:39:00,
2013-06-15 15:40:00,47.5,46.7,30.04,SE,143,7.0,8.0,97,0.01,,---,0.85,VWS V14.01,2013-06-15 23:40:00,
2013-06-15 15:42:00,47.5,46.7,30.04,South,169,5.0,6.0,97,0.01,,---,0.85,VWS V14.01,2013-06-15 23:42:00,
2013-06-15 15:44:00,47.5,46.7,30.04,SSE,150,6.0,7.0,97,0.01,,---,0.85,VWS V14.01,2013-06-15 23:44:00,
2013-06-15 15:45:00,47.5,46.7,30.04,SSE,154,5.0,7.0,97,0.01,,---,0.85,VWS V14.01,2013-06-15 23:45:00,
2013-06-15 15:47:00,47.5,46.7,30.04,South,175,5.0,9.0,97,0.01,,---,0.85,VWS V14.01,2013-06-15 23:47:00,
2013-06-15 15:49:00,47.4,46.6,30.04,SSE,163,6.0,9.0,97,0.01,,---,0.85,VWS V14.01,2013-06-15 23:49:00,
2013-06-15 15:50:00,47.4,46.6,30.04,South,179,7.0,9.0,97,0.01,,---,0.85,VWS V14.01,2013-06-15 23:50:00,
2013-06-15 15:52:00,47.3,46.5,30.04,SSE,153,5.0,8.0,97,0.01,,---,0.85,VWS V14.01,2013-06-15 23:52:00,
2013-06-15 15:53:00,47.3,46.5,30.04,South,174,4.0,8.0,97,0.01,,---,0.85,VWS V14.01,2013-06-15 23:53:00,
2013-06-15 15:54:00,47.3,46.5,30.04,South,173,5.0,8.0,97,0.01,,---,0.85,VWS V14.01,2013-06-15 23:54:00,
2013-06-15 15:56:00,47.3,46.5,30.05,SSE,164,6.0,8.0,97,0.01,,---,0.85,VWS V14.01,2013-06-15 23:56:00,
2013-06-15 15:57:00,47.3,46.5,30.04,SSE,165,6.0,7.0,97,0.01,,---,0.85,VWS V14.01,2013-06-15 23:57:00,
2013-06-15 15:58:00,47.3,46.5,30.05,SSE,161,4.0,7.0,97,0.01,,---,0.85,VWS V14.01,2013-06-15 23:58:00,
2013-06-15 15:59:00,47.3,46.5,30.05,SSE,159,4.0,10.0,97,0.01,,---,0.85,VWS V14.01,2013-06-15 23:59:00,
2013-06-15 16:01:00,47.3,46.5,30.05,South,175,5.0,10.0,97,0.01,,---,0.85,VWS V14.01,2013-06-16 00:01:00,
2013-06-15 16:02:00,47.4,46.6,30.04,South,173,6.0,8.0,97,0.01,,---,0.85,VWS V14.01,2013-06-16 00:02:00,
2013-06-15 16:03:00,47.5,46.7,30.04,South,186,2.0,8.0,97,0.01,,---,0.85,VWS V14.01,2013-06-16 00:03:00,
2013-06-15 16:04:00,47.6,46.8,30.04,SSW,207,5.0,8.0,97,0.01,,---,0.85,VWS V14.01,2013-06-16 00:04:00,
2013-06-15 16:05:00,47.6,46.8,30.04,South,178,5.0,8.0,97,0.01,,---,0.85,VWS V14.01,2013-06-16 00:05:00,
2013-06-15 16:06:00,47.7,46.9,30.05,South,189,4.0,8.0,97,0.01,,---,0.85,VWS V14.01,2013-06-16 00:06:00,
2013-06-15 16:08:00,47.7,46.9,30.05,SSE,159,2.0,6.0,97,0.01,,---,0.85,VWS V14.01,2013-06-16 00:08:00,
2013-06-15 16:09:00,47.8,47.0,30.05,SSE,156,4.0,6.0,97,0.01,,---,0.85,VWS V14.01,2013-06-16 00:09:00,
2013-06-15 16:10:00,47.8,47.0,30.05,South,180,3.0,6.0,97,0.01,,---,0.85,VWS V14.01,2013-06-16 00:10:00,
2013-06-15 16:11:00,47.9,47.1,30.05,SSE,151,2.0,6.0,97,0.01,,---,0.85,VWS V14.01,2013-06-16 00:11:00,
2013-06-15 16:13:00,48.0,47.5,30.05,SSE,152,5.0,6.0,98,0.01,,---,0.85,VWS V14.01,2013-06-16 00:13:00,
2013-06-15 16:14:00,48.0,47.5,30.05,SSE,158,4.0,6.0,98,0.01,,---,0.85,VWS V14.01,2013-06-16 00:14:00,
2013-06-15 16:15:00,48.0,47.5,30.05,SSE,164,4.0,6.0,98,0.01,,---,0.85,VWS V14.01,2013-06-16 00:15:00,
2013-06-15 16:16:00,48.0,47.5,30.05,SSE,163,4.0,6.0,98,0.01,,---,0.85,VWS V14.01,2013-06-16 00:16:00,
2013-06-15 16:18:00,47.9,47.1,30.05,South,171,2.0,6.0,97,0.01,,---,0.85,VWS V14.01,2013-06-16 00:18:00,
2013-06-15 16:19:00,47.9,47.1,30.05,SSE,163,2.0,6.0,97,0.01,,---,0.85,VWS V14.01,2013-06-16 00:19:00,
2013-06-15 16:21:00,47.9,47.1,30.05,SSE,158,4.0,6.0,97,0.01,,---,0.85,VWS V14.01,2013-06-16 00:21:00,
2013-06-15 16:23:00,47.9,47.1,30.05,SSE,159,5.0,6.0,97,0.01,,---,0.85,VWS V14.01,2013-06-16 00:23:00,
2013-06-15 16:24:00,47.9,47.1,30.05,SSW,195,5.0,6.0,97,0.01,,---,0.85,VWS V14.01,2013-06-16 00:24:00,
2013-06-15 16:26:00,47.8,47.0,30.05,South,190,2.0,4.0,97,0.00,,---,0.85,VWS V14.01,2013-06-16 00:26:00,
2013-06-15 16:27:00,47.8,47.0,30.05,South,169,6.0,6.0,97,0.00,,---,0.85,VWS V14.01,2013-06-16 00:27:00,
2013-06-15 16:29:00,47.8,47.0,30.05,South,188,2.0,6.0,97,0.00,,---,0.85,VWS V14.01,2013-06-16 00:29:00,
2013-06-15 16:32:00,47.9,47.1,30.05,South,180,4.0,6.0,97,0.00,,---,0.85,VWS V14.01,2013-06-16 00:32:00,
2013-06-15 16:34:00,47.9,47.1,30.05,South,180,2.0,6.0,97,0.00,,---,0.85,VWS V14.01,2013-06-16 00:34:00,
2013-06-15 16:37:00,48.1,47.3,30.05,South,178,4.0,4.0,97,0.00,,---,0.85,VWS V14.01,2013-06-16 00:37:00,
2013-06-15 16:39:00,48.2,47.4,30.05,South,180,5.0,7.0,97,0.00,,---,0.85,VWS V14.01,2013-06-16 00:39:00,
2013-06-15 16:40:00,48.2,47.4,30.05,SE,134,5.0,7.0,97,0.00,,---,0.85,VWS V14.01,2013-06-16 00:40:00,
2013-06-15 16:42:00,48.2,47.4,30.05,SSE,167,4.0,6.0,97,0.00,,---,0.85,VWS V14.01,2013-06-16 00:42:00,
2013-06-15 16:44:00,48.2,47.4,30.05,SSE,157,4.0,6.0,97,0.00,,---,0.85,VWS V14.01,2013-06-16 00:44:00,
2013-06-15 16:45:00,48.2,47.4,30.05,SSE,157,2.0,6.0,97,0.00,,---,0.85,VWS V14.01,2013-06-16 00:45:00,
2013-06-15 16:47:00,48.3,47.5,30.05,South,169,4.0,4.0,97,0.00,,---,0.85,VWS V14.01,2013-06-16 00:47:00,
2013-06-15 16:49:00,48.4,47.6,30.05,South,177,2.0,5.0,97,0.00,,---,0.85,VWS V14.01,2013-06-16 00:49:00,
2013-06-15 16:50:00,48.5,47.7,30.05,South,176,2.0,5.0,97,0.00,,---,0.85,VWS V14.01,2013-06-16 00:50:00,
2013-06-15 16:52:00,48.5,47.7,30.05,SSE,155,2.0,4.0,97,0.00,,---,0.85,VWS V14.01,2013-06-16 00:52:00,
2013-06-15 16:55:00,48.5,47.7,30.05,South,178,2.0,5.0,97,0.00,,---,0.85,VWS V14.01,2013-06-16 00:55:00,
2013-06-15 16:56:00,48.5,47.7,30.06,SSE,158,4.0,5.0,97,0.00,,---,0.85,VWS V14.01,2013-06-16 00:56:00,
2013-06-15 16:57:00,48.5,47.7,30.05,South,188,2.0,4.0,97,0.00,,---,0.85,VWS V14.01,2013-06-16 00:57:00,
2013-06-15 16:58:00,48.5,47.7,30.05,South,188,1.0,4.0,97,0.00,,---,0.85,VWS V14.01,2013-06-16 00:58:00,
2013-06-15 17:00:00,48.5,47.7,30.05,South,190,1.0,4.0,97,0.00,,---,0.85,VWS V14.01,2013-06-16 01:00:00,
2013-06-15 17:01:00,48.5,47.7,30.06,SSE,159,5.0,5.0,97,0.00,,---,0.85,VWS V14.01,2013-06-16 01:01:00,
2013-06-15 17:03:00,48.5,47.7,30.06,South,188,1.0,3.0,97,0.00,,---,0.85,VWS V14.01,2013-06-16 01:03:00,
2013-06-15 17:05:00,48.7,47.9,30.06,South,175,2.0,3.0,97,0.00,,---,0.85,VWS V14.01,2013-06-16 01:05:00,
2013-06-15 17:06:00,48.7,47.9,30.06,SSE,157,2.0,3.0,97,0.00,,---,0.85,VWS V14.01,2013-06-16 01:06:00,
2013-06-15 17:08:00,48.7,47.9,30.06,SSE,152,5.0,5.0,97,0.00,,---,0.85,VWS V14.01,2013-06-16 01:08:00,
2013-06-15 17:10:00,48.8,48.0,30.06,SE,146,5.0,6.0,97,0.00,,---,0.85,VWS V14.01,2013-06-16 01:10:00,
2013-06-15 17:11:00,48.8,48.0,30.06,SSE,155,4.0,6.0,97,0.00,,---,0.85,VWS V14.01,2013-06-16 01:11:00,
2013-06-15 17:13:00,48.8,48.0,30.06,SSE,157,4.0,6.0,97,0.00,,---,0.85,VWS V14.01,2013-06-16 01:13:00,
2013-06-15 17:16:00,49.0,48.2,30.06,SE,146,4.0,6.0,97,0.00,,---,0.85,VWS V14.01,2013-06-16 01:16:00,
2013-06-15 17:18:00,49.0,48.2,30.06,SSE,156,4.0,4.0,97,0.00,,---,0.85,VWS V14.01,2013-06-16 01:18:00,
2013-06-15 17:21:00,49.0,48.2,30.06,SSE,150,2.0,4.0,97,0.00,,---,0.85,VWS V14.01,2013-06-16 01:21:00,
2013-06-15 17:23:00,48.9,48.1,30.06,SSE,162,4.0,5.0,97,0.00,,---,0.85,VWS V14.01,2013-06-16 01:23:00,
2013-06-15 17:24:00,48.9,48.1,30.06,SSE,162,4.0,5.0,97,0.00,,---,0.85,VWS V14.01,2013-06-16 01:24:00,
2013-06-15 17:26:00,48.9,48.1,30.06,SE,140,1.0,5.0,97,0.00,,---,0.85,VWS V14.01,2013-06-16 01:26:00,
2013-06-15 17:27:00,48.9,48.1,30.06,SE,127,2.0,2.0,97,0.00,,---,0.85,VWS V14.01,2013-06-16 01:27:00,
2013-06-15 17:29:00,48.9,48.1,30.06,SE,144,2.0,4.0,97,0.00,,---,0.85,VWS V14.01,2013-06-16 01:29:00,
2013-06-15 17:31:00,48.9,48.1,30.06,SE,128,1.0,4.0,97,0.00,,---,0.85,VWS V14.01,2013-06-16 01:31:00,
2013-06-15 17:32:00,48.9,48.1,30.06,SE,126,1.0,4.0,97,0.00,,---,0.85,VWS V14.01,2013-06-16 01:32:00,
2013-06-15 17:34:00,48.9,48.1,30.06,SE,131,1.0,4.0,97,0.00,,---,0.85,VWS V14.01,2013-06-16 01:34:00,